Terminal Aerodrome Forecast
Issued by NWS

Home | Current Version | Previous Version | Text Only | Print | Product List | Glossary On
Versions: 1 2 3 4 5 6 7 8 9 10 11 12 13 14 15 16
000
FTUS45 KPSR 191120
TAFIWA
TAF
KIWA 191120Z 1912/2012 20014KT P6SM BKN050 BKN070
     FM191300 23014G24KT P6SM SCT050 BKN070
     FM191800 26018G28KT P6SM SCT060 BKN080
     FM200200 28012KT P6SM SCT070
     FM200700 28006KT P6SM FEW080
      AMD LTD TO CLD VIS AND WIND TIL 191300=

USA.gov is the U.S. government's official web portal to all federal, state and local government web resources and services.